createdAt,value
2018-11-27T00:00:19.431Z,1013.20
2018-11-27T00:01:19.419Z,1013.19
2018-11-27T00:02:19.408Z,1013.23
2018-11-27T00:03:19.398Z,1013.19
2018-11-27T00:04:19.388Z,1013.22
2018-11-27T00:05:19.390Z,1013.21
2018-11-27T00:06:19.365Z,1013.19
2018-11-27T00:07:19.355Z,1013.21
2018-11-27T00:08:19.345Z,1013.25
2018-11-27T00:09:19.334Z,1013.26
2018-11-27T00:10:19.323Z,1013.24
2018-11-27T00:11:19.312Z,1013.24
2018-11-27T00:12:19.302Z,1013.25
2018-11-27T00:13:19.289Z,1013.28
2018-11-27T00:14:19.280Z,1013.28
2018-11-27T00:15:19.273Z,1013.27
2018-11-27T00:16:19.259Z,1013.26
2018-11-27T00:17:19.248Z,1013.25
2018-11-27T00:18:19.240Z,1013.26
2018-11-27T00:19:19.227Z,1013.25
2018-11-27T00:20:19.218Z,1013.26
2018-11-27T00:21:19.205Z,1013.24
2018-11-27T00:22:19.200Z,1013.26
2018-11-27T00:23:19.183Z,1013.30
2018-11-27T00:24:19.173Z,1013.31
2018-11-27T00:25:19.163Z,1013.28
2018-11-27T00:26:19.152Z,1013.30
2018-11-27T00:27:19.142Z,1013.30
2018-11-27T00:28:19.138Z,1013.36
2018-11-27T00:29:19.118Z,1013.32
2018-11-27T00:30:19.108Z,1013.34
2018-11-27T00:31:19.098Z,1013.36
2018-11-27T00:32:19.086Z,1013.38
2018-11-27T00:33:19.075Z,1013.33
2018-11-27T00:34:19.074Z,1013.36
2018-11-27T00:35:19.054Z,1013.35
2018-11-27T00:36:19.043Z,1013.35
2018-11-27T00:37:19.034Z,1013.35
2018-11-27T00:38:19.023Z,1013.37
2018-11-27T00:39:19.016Z,1013.40
2018-11-27T00:40:19.023Z,1013.42
2018-11-27T00:41:18.989Z,1013.40
2018-11-27T00:42:18.978Z,1013.42
2018-11-27T00:43:18.967Z,1013.38
2018-11-27T00:44:18.958Z,1013.44
2018-11-27T00:45:18.948Z,1013.40
2018-11-27T00:46:18.938Z,1013.45
2018-11-27T00:47:18.926Z,1013.47
2018-11-27T00:48:18.914Z,1013.51
2018-11-27T00:49:18.903Z,1013.49
2018-11-27T00:50:18.892Z,1013.56
2018-11-27T00:51:18.886Z,1013.55
2018-11-27T00:52:18.873Z,1013.55
2018-11-27T00:53:18.861Z,1013.60
2018-11-27T00:54:20.002Z,1013.61
2018-11-27T00:55:18.845Z,1013.57
2018-11-27T00:56:18.829Z,1013.59
2018-11-27T00:57:18.819Z,1013.62
2018-11-27T00:58:18.812Z,1013.56
2018-11-27T00:59:18.797Z,1013.59
2018-11-27T01:00:18.789Z,1013.58
2018-11-27T01:01:18.775Z,1013.58
2018-11-27T01:02:18.765Z,1013.61
2018-11-27T01:03:18.755Z,1013.60
2018-11-27T01:04:18.747Z,1013.65
2018-11-27T01:05:18.733Z,1013.62
2018-11-27T01:06:18.721Z,1013.60
2018-11-27T01:07:18.713Z,1013.65
2018-11-27T01:08:18.700Z,1013.66
2018-11-27T01:09:18.692Z,1013.62
2018-11-27T01:10:18.680Z,1013.62
2018-11-27T01:11:18.669Z,1013.62
2018-11-27T01:12:18.660Z,1013.69
2018-11-27T01:13:18.648Z,1013.66
2018-11-27T01:14:18.636Z,1013.66
2018-11-27T01:15:18.630Z,1013.68
2018-11-27T01:16:18.613Z,1013.70
2018-11-27T01:17:18.603Z,1013.70
2018-11-27T01:18:18.592Z,1013.71
2018-11-27T01:19:18.580Z,1013.72
2018-11-27T01:20:18.570Z,1013.75
2018-11-27T01:21:18.568Z,1013.68
2018-11-27T01:22:18.589Z,1013.66
2018-11-27T01:23:18.539Z,1013.69
2018-11-27T01:24:18.528Z,1013.69
2018-11-27T01:25:18.518Z,1013.72
2018-11-27T01:26:18.506Z,1013.72
2018-11-27T01:27:18.496Z,1013.75
2018-11-27T01:28:18.486Z,1013.68
2018-11-27T01:29:18.478Z,1013.69
2018-11-27T01:30:18.463Z,1013.67
2018-11-27T01:31:18.452Z,1013.67
2018-11-27T01:32:18.444Z,1013.66
2018-11-27T01:33:18.431Z,1013.69
2018-11-27T01:34:18.421Z,1013.68
2018-11-27T01:35:18.410Z,1013.66
2018-11-27T01:36:18.401Z,1013.67
2018-11-27T01:37:18.388Z,1013.68
2018-11-27T01:38:18.378Z,1013.68
2018-11-27T01:39:18.368Z,1013.70
2018-11-27T01:40:18.356Z,1013.65
2018-11-27T01:41:18.345Z,1013.74
2018-11-27T01:42:18.336Z,1013.72
2018-11-27T01:43:18.329Z,1013.74
2018-11-27T01:44:18.313Z,1013.79
2018-11-27T01:45:18.306Z,1013.77
2018-11-27T01:46:18.292Z,1013.72
2018-11-27T01:47:18.281Z,1013.78
2018-11-27T01:48:18.270Z,1013.75
2018-11-27T01:49:18.260Z,1013.77
2018-11-27T01:50:18.250Z,1013.79
2018-11-27T01:51:18.237Z,1013.82
2018-11-27T01:52:18.230Z,1013.82
2018-11-27T01:53:18.219Z,1013.79
2018-11-27T01:54:18.219Z,1013.78
2018-11-27T01:55:18.196Z,1013.80
2018-11-27T01:56:18.194Z,1013.80
2018-11-27T01:57:18.174Z,1013.79
2018-11-27T01:58:18.168Z,1013.78
2018-11-27T01:59:18.154Z,1013.78
2018-11-27T02:00:18.142Z,1013.82
2018-11-27T02:01:18.131Z,1013.74
2018-11-27T02:02:18.129Z,1013.80
2018-11-27T02:03:18.110Z,1013.82
2018-11-27T02:04:18.101Z,1013.78
2018-11-27T02:05:18.088Z,1013.77
2018-11-27T02:06:18.079Z,1013.84
2018-11-27T02:07:18.068Z,1013.82
2018-11-27T02:08:18.055Z,1013.77
2018-11-27T02:09:18.045Z,1013.78
2018-11-27T02:10:18.034Z,1013.77
2018-11-27T02:11:18.023Z,1013.77
2018-11-27T02:12:18.013Z,1013.79
2018-11-27T02:13:18.007Z,1013.70
2018-11-27T02:14:17.992Z,1013.73
2018-11-27T02:15:17.984Z,1013.74
2018-11-27T02:16:17.972Z,1013.74
2018-11-27T02:17:17.961Z,1013.74
2018-11-27T02:18:17.949Z,1013.69
2018-11-27T02:19:17.937Z,1013.71
2018-11-27T02:20:17.926Z,1013.71
2018-11-27T02:21:17.919Z,1013.70
2018-11-27T02:22:17.906Z,1013.74
2018-11-27T02:23:17.895Z,1013.80
2018-11-27T02:24:17.884Z,1013.76
2018-11-27T02:25:17.874Z,1013.79
2018-11-27T02:26:17.868Z,1013.81
2018-11-27T02:27:17.851Z,1013.79
2018-11-27T02:28:17.842Z,1013.84
2018-11-27T02:29:17.830Z,1013.86
2018-11-27T02:30:17.822Z,1013.89
2018-11-27T02:31:17.809Z,1013.90
2018-11-27T02:32:17.822Z,1013.94
2018-11-27T02:33:17.789Z,1013.94
2018-11-27T02:34:17.776Z,1013.92
2018-11-27T02:35:17.767Z,1013.94
2018-11-27T02:36:17.755Z,1013.94
2018-11-27T02:37:17.750Z,1013.94
2018-11-27T02:38:17.746Z,1013.96
2018-11-27T02:39:17.724Z,1013.95
2018-11-27T02:40:17.713Z,1013.92
2018-11-27T02:41:17.702Z,1013.95
2018-11-27T02:42:17.692Z,1013.99
2018-11-27T02:43:17.686Z,1013.99
2018-11-27T02:44:17.670Z,1014.03
2018-11-27T02:45:17.674Z,1014.00
2018-11-27T02:46:17.648Z,1014.03
2018-11-27T02:47:17.638Z,1014.08
2018-11-27T02:48:17.628Z,1014.09
2018-11-27T02:49:17.625Z,1014.14
2018-11-27T02:50:17.607Z,1014.13
2018-11-27T02:51:17.595Z,1014.10
2018-11-27T02:52:17.584Z,1014.16
2018-11-27T02:53:17.574Z,1014.22
2018-11-27T02:54:17.563Z,1014.23
2018-11-27T02:55:17.565Z,1014.24
2018-11-27T02:56:17.542Z,1014.22
2018-11-27T02:57:17.530Z,1014.30
2018-11-27T02:58:17.523Z,1014.26
2018-11-27T02:59:17.508Z,1014.31
2018-11-27T03:00:17.503Z,1014.30
2018-11-27T03:01:17.532Z,1014.22
2018-11-27T03:02:17.518Z,1014.24
2018-11-27T03:03:17.466Z,1014.23
2018-11-27T03:04:17.462Z,1014.21
2018-11-27T03:05:17.446Z,1014.21
2018-11-27T03:06:17.435Z,1014.18
2018-11-27T03:07:17.422Z,1014.24
2018-11-27T03:08:17.412Z,1014.22
2018-11-27T03:09:17.403Z,1014.26
2018-11-27T03:10:17.392Z,1014.22
2018-11-27T03:11:17.380Z,1014.24
2018-11-27T03:12:17.371Z,1014.29
2018-11-27T03:13:17.365Z,1014.25
2018-11-27T03:14:17.349Z,1014.24
2018-11-27T03:15:17.340Z,1014.23
2018-11-27T03:16:17.326Z,1014.27
2018-11-27T03:17:17.318Z,1014.26
2018-11-27T03:18:17.305Z,1014.27
2018-11-27T03:19:17.295Z,1014.28
2018-11-27T03:20:17.283Z,1014.25
2018-11-27T03:21:17.274Z,1014.29
2018-11-27T03:22:17.264Z,1014.25
2018-11-27T03:23:17.252Z,1014.31
2018-11-27T03:24:17.244Z,1014.33
2018-11-27T03:25:17.233Z,1014.25
2018-11-27T03:26:17.220Z,1014.27
2018-11-27T03:27:17.213Z,1014.27
2018-11-27T03:28:17.203Z,1014.27
2018-11-27T03:29:17.188Z,1014.31
2018-11-27T03:30:17.182Z,1014.35
2018-11-27T03:31:17.170Z,1014.37
2018-11-27T03:32:17.163Z,1014.35
2018-11-27T03:33:17.155Z,1014.36
2018-11-27T03:34:17.133Z,1014.34
2018-11-27T03:35:17.126Z,1014.31
2018-11-27T03:36:17.120Z,1014.34
2018-11-27T03:37:17.103Z,1014.31
2018-11-27T03:38:17.090Z,1014.36
2018-11-27T03:39:17.081Z,1014.38
2018-11-27T03:40:17.085Z,1014.38
2018-11-27T03:41:17.065Z,1014.40
2018-11-27T03:42:17.051Z,1014.44
2018-11-27T03:43:17.039Z,1014.50
2018-11-27T03:44:17.026Z,1014.45
2018-11-27T03:45:17.015Z,1014.51
2018-11-27T03:46:17.017Z,1014.49
2018-11-27T03:47:16.998Z,1014.54
2018-11-27T03:48:16.984Z,1014.53
2018-11-27T03:49:16.972Z,1014.56
2018-11-27T03:50:16.965Z,1014.52
2018-11-27T03:51:16.951Z,1014.55
2018-11-27T03:52:16.939Z,1014.54
2018-11-27T03:53:16.932Z,1014.53
2018-11-27T03:54:16.919Z,1014.54
2018-11-27T03:55:16.910Z,1014.52
2018-11-27T03:56:16.901Z,1014.54
2018-11-27T03:57:16.887Z,1014.54
2018-11-27T03:58:16.878Z,1014.51
2018-11-27T03:59:16.864Z,1014.56
2018-11-27T04:00:16.860Z,1014.50
2018-11-27T04:01:16.844Z,1014.60
2018-11-27T04:02:16.832Z,1014.59
2018-11-27T04:03:16.827Z,1014.57
2018-11-27T04:04:16.811Z,1014.52
2018-11-27T04:05:16.802Z,1014.57
2018-11-27T04:06:16.791Z,1014.62
2018-11-27T04:07:16.780Z,1014.55
2018-11-27T04:08:16.772Z,1014.60
2018-11-27T04:09:16.759Z,1014.57
2018-11-27T04:10:16.747Z,1014.59
2018-11-27T04:11:16.741Z,1014.59
2018-11-27T04:12:16.726Z,1014.59
2018-11-27T04:13:16.716Z,1014.59
2018-11-27T04:14:16.705Z,1014.53
2018-11-27T04:15:16.693Z,1014.54
2018-11-27T04:16:16.684Z,1014.52
2018-11-27T04:17:16.681Z,1014.54
2018-11-27T04:18:16.661Z,1014.60
2018-11-27T04:19:16.656Z,1014.62
2018-11-27T04:20:16.663Z,1014.60
2018-11-27T04:21:16.629Z,1014.59
2018-11-27T04:22:16.619Z,1014.61
2018-11-27T04:23:16.616Z,1014.58
2018-11-27T04:24:16.597Z,1014.63
2018-11-27T04:25:16.596Z,1014.65
2018-11-27T04:26:16.575Z,1014.69
2018-11-27T04:27:16.568Z,1014.64
2018-11-27T04:28:16.554Z,1014.66
2018-11-27T04:29:16.547Z,1014.68
2018-11-27T04:30:16.536Z,1014.70
2018-11-27T04:31:16.522Z,1014.72
2018-11-27T04:32:16.512Z,1014.76
2018-11-27T04:33:16.502Z,1014.75
2018-11-27T04:34:16.492Z,1014.76
2018-11-27T04:35:16.480Z,1014.81
2018-11-27T04:36:16.468Z,1014.82
2018-11-27T04:37:16.458Z,1014.81
2018-11-27T04:38:16.458Z,1014.82
2018-11-27T04:39:16.437Z,1014.85
2018-11-27T04:40:16.428Z,1014.84
2018-11-27T04:41:16.415Z,1014.86
2018-11-27T04:42:16.411Z,1014.81
2018-11-27T04:43:16.394Z,1014.86
2018-11-27T04:44:16.384Z,1014.87
2018-11-27T04:45:16.372Z,1014.87
2018-11-27T04:46:16.369Z,1014.88
2018-11-27T04:47:16.355Z,1014.88
2018-11-27T04:48:16.340Z,1014.86
2018-11-27T04:49:16.332Z,1014.86
2018-11-27T04:50:16.325Z,1014.86
2018-11-27T04:51:16.311Z,1014.89
2018-11-27T04:52:16.304Z,1014.91
2018-11-27T04:53:16.288Z,1014.97
2018-11-27T04:54:16.276Z,1014.95
2018-11-27T04:55:16.266Z,1014.92
2018-11-27T04:56:16.256Z,1014.98
2018-11-27T04:57:16.244Z,1014.98
2018-11-27T04:58:16.234Z,1014.98
2018-11-27T04:59:16.222Z,1015.01
2018-11-27T05:00:16.211Z,1015.01
2018-11-27T05:01:16.200Z,1015.01
2018-11-27T05:02:16.194Z,1015.04
2018-11-27T05:03:16.179Z,1015.09
2018-11-27T05:04:16.188Z,1015.04
2018-11-27T05:05:16.161Z,1015.07
2018-11-27T05:06:16.148Z,1015.10
2018-11-27T05:07:16.136Z,1015.12
2018-11-27T05:08:16.127Z,1015.14
2018-11-27T05:09:16.115Z,1015.15
2018-11-27T05:10:16.103Z,1015.12
2018-11-27T05:11:16.094Z,1015.10
2018-11-27T05:12:16.084Z,1015.13
2018-11-27T05:13:16.075Z,1015.12
2018-11-27T05:14:16.063Z,1015.08
2018-11-27T05:15:16.049Z,1015.10
2018-11-27T05:16:16.040Z,1015.13
2018-11-27T05:17:16.028Z,1015.15
2018-11-27T05:18:16.019Z,1015.20
2018-11-27T05:19:16.007Z,1015.19
2018-11-27T05:20:15.997Z,1015.22
2018-11-27T05:21:15.987Z,1015.21
2018-11-27T05:22:15.976Z,1015.25
2018-11-27T05:23:15.964Z,1015.24
2018-11-27T05:24:15.959Z,1015.20
2018-11-27T05:25:15.943Z,1015.19
2018-11-27T05:26:15.935Z,1015.18
2018-11-27T05:27:15.920Z,1015.24
2018-11-27T05:28:15.913Z,1015.28
2018-11-27T05:29:15.900Z,1015.26
2018-11-27T05:30:15.888Z,1015.27
2018-11-27T05:31:15.878Z,1015.29
2018-11-27T05:32:15.868Z,1015.29
2018-11-27T05:33:15.857Z,1015.31
2018-11-27T05:34:15.850Z,1015.30
2018-11-27T05:35:15.837Z,1015.37
2018-11-27T05:36:15.827Z,1015.34
2018-11-27T05:37:15.817Z,1015.38
2018-11-27T05:38:15.807Z,1015.38
2018-11-27T05:39:15.794Z,1015.36
2018-11-27T05:40:15.787Z,1015.33
2018-11-27T05:41:15.771Z,1015.37
2018-11-27T05:42:15.763Z,1015.36
2018-11-27T05:43:15.760Z,1015.33
2018-11-27T05:44:15.746Z,1015.36
2018-11-27T05:45:15.732Z,1015.35
2018-11-27T05:46:15.719Z,1015.39
2018-11-27T05:47:15.714Z,1015.39
2018-11-27T05:48:15.698Z,1015.37
2018-11-27T05:49:15.689Z,1015.45
2018-11-27T05:50:15.682Z,1015.44
2018-11-27T05:51:15.669Z,1015.44
2018-11-27T05:52:15.654Z,1015.47
2018-11-27T05:53:15.645Z,1015.52
2018-11-27T05:54:15.634Z,1015.51
2018-11-27T05:55:15.624Z,1015.52
2018-11-27T05:56:15.619Z,1015.48
2018-11-27T05:57:15.608Z,1015.51
2018-11-27T05:58:15.593Z,1015.46
2018-11-27T05:59:15.583Z,1015.50
2018-11-27T06:00:15.570Z,1015.51
2018-11-27T06:01:15.559Z,1015.49
2018-11-27T06:02:15.549Z,1015.53
2018-11-27T06:03:15.546Z,1015.56
2018-11-27T06:04:15.527Z,1015.53
2018-11-27T06:05:15.516Z,1015.60
2018-11-27T06:06:15.509Z,1015.53
2018-11-27T06:07:15.497Z,1015.63
2018-11-27T06:08:15.488Z,1015.57
2018-11-27T06:09:15.477Z,1015.57
2018-11-27T06:10:15.471Z,1015.61
2018-11-27T06:11:15.455Z,1015.57
2018-11-27T06:12:15.438Z,1015.70
2018-11-27T06:13:15.427Z,1015.67
2018-11-27T06:14:15.418Z,1015.64
2018-11-27T06:15:15.407Z,1015.74
2018-11-27T06:16:15.398Z,1015.74
2018-11-27T06:17:15.384Z,1015.78
2018-11-27T06:18:15.373Z,1015.79
2018-11-27T06:19:15.362Z,1015.85
2018-11-27T06:20:15.355Z,1015.86
2018-11-27T06:21:15.341Z,1015.87
2018-11-27T06:22:15.330Z,1015.88
2018-11-27T06:23:15.323Z,1015.87
2018-11-27T06:24:15.308Z,1015.90
2018-11-27T06:25:15.304Z,1015.88
2018-11-27T06:26:15.290Z,1015.93
2018-11-27T06:27:15.278Z,1015.91
2018-11-27T06:28:15.269Z,1015.98
2018-11-27T06:29:15.256Z,1015.99
2018-11-27T06:30:15.247Z,1016.00
2018-11-27T06:31:15.237Z,1016.05
2018-11-27T06:32:15.223Z,1016.11
2018-11-27T06:33:15.214Z,1016.13
2018-11-27T06:34:15.206Z,1016.07
2018-11-27T06:35:15.193Z,1016.11
2018-11-27T06:36:15.189Z,1016.19
2018-11-27T06:37:15.171Z,1016.19
2018-11-27T06:38:15.199Z,1016.21
2018-11-27T06:39:15.152Z,1016.20
2018-11-27T06:40:15.139Z,1016.19
2018-11-27T06:41:15.127Z,1016.19
2018-11-27T06:42:15.117Z,1016.21
2018-11-27T06:43:15.108Z,1016.19
2018-11-27T06:44:15.095Z,1016.22
2018-11-27T06:45:15.085Z,1016.22
2018-11-27T06:46:15.072Z,1016.18
2018-11-27T06:47:15.063Z,1016.18
2018-11-27T06:48:15.052Z,1016.21
2018-11-27T06:49:15.041Z,1016.23
2018-11-27T06:50:15.043Z,1016.29
2018-11-27T06:51:15.021Z,1016.24
2018-11-27T06:52:15.010Z,1016.26
2018-11-27T06:53:15.001Z,1016.30
2018-11-27T06:54:14.987Z,1016.28
2018-11-27T06:55:14.982Z,1016.25
2018-11-27T06:56:14.985Z,1016.27
2018-11-27T06:57:14.957Z,1016.26
2018-11-27T06:58:14.944Z,1016.25
2018-11-27T06:59:14.935Z,1016.28
2018-11-27T07:00:14.925Z,1016.23
2018-11-27T07:01:14.915Z,1016.28
2018-11-27T07:02:14.902Z,1016.29
2018-11-27T07:03:14.893Z,1016.25
2018-11-27T07:04:14.880Z,1016.26
2018-11-27T07:05:14.870Z,1016.29
2018-11-27T07:06:14.858Z,1016.32
2018-11-27T07:07:14.850Z,1016.38
2018-11-27T07:08:14.838Z,1016.37
2018-11-27T07:09:14.830Z,1016.40
2018-11-27T07:10:14.820Z,1016.40
2018-11-27T07:11:14.807Z,1016.46
2018-11-27T07:12:14.796Z,1016.41
2018-11-27T07:13:14.791Z,1016.47
2018-11-27T07:14:14.772Z,1016.49
2018-11-27T07:15:14.763Z,1016.42
2018-11-27T07:16:14.757Z,1016.51
2018-11-27T07:17:14.740Z,1016.44
2018-11-27T07:18:14.742Z,1016.49
2018-11-27T07:19:14.743Z,1016.51
2018-11-27T07:20:14.709Z,1016.49
2018-11-27T07:21:14.740Z,1016.57
2018-11-27T07:22:14.690Z,1016.51
2018-11-27T07:23:14.679Z,1016.53
2018-11-27T07:24:14.668Z,1016.54
2018-11-27T07:25:14.653Z,1016.57
2018-11-27T07:26:14.646Z,1016.54
2018-11-27T07:27:14.635Z,1016.59
2018-11-27T07:28:14.622Z,1016.55
2018-11-27T07:29:14.623Z,1016.61
2018-11-27T07:30:14.600Z,1016.58
2018-11-27T07:31:14.590Z,1016.57
2018-11-27T07:32:14.579Z,1016.63
2018-11-27T07:33:14.572Z,1016.62
2018-11-27T07:34:14.558Z,1016.61
2018-11-27T07:35:14.547Z,1016.58
2018-11-27T07:36:14.538Z,1016.60
2018-11-27T07:37:14.526Z,1016.62
2018-11-27T07:38:14.515Z,1016.67
2018-11-27T07:39:14.509Z,1016.67
2018-11-27T07:40:14.494Z,1016.66
2018-11-27T07:41:14.483Z,1016.68
2018-11-27T07:42:14.472Z,1016.72
2018-11-27T07:43:14.462Z,1016.75
2018-11-27T07:44:14.452Z,1016.74
2018-11-27T07:45:14.441Z,1016.75
2018-11-27T07:46:14.430Z,1016.76
2018-11-27T07:47:14.419Z,1016.72
2018-11-27T07:48:14.409Z,1016.73
2018-11-27T07:49:14.397Z,1016.72
2018-11-27T07:50:14.388Z,1016.76
2018-11-27T07:51:14.376Z,1016.72
2018-11-27T07:52:14.365Z,1016.73
2018-11-27T07:53:14.356Z,1016.74
2018-11-27T07:54:14.343Z,1016.77
2018-11-27T07:55:14.332Z,1016.80
2018-11-27T07:56:14.322Z,1016.76
2018-11-27T07:57:14.312Z,1016.83
2018-11-27T07:58:14.302Z,1016.82
2018-11-27T07:59:14.296Z,1016.80
2018-11-27T08:00:14.283Z,1016.79
2018-11-27T08:01:14.268Z,1016.84
2018-11-27T08:02:14.256Z,1016.82
2018-11-27T08:03:14.249Z,1016.88
2018-11-27T08:04:14.237Z,1016.87
2018-11-27T08:05:14.228Z,1016.87
2018-11-27T08:06:14.213Z,1016.86
2018-11-27T08:07:14.204Z,1016.83
2018-11-27T08:08:14.195Z,1016.83
2018-11-27T08:09:14.183Z,1016.80
2018-11-27T08:10:14.171Z,1016.82
2018-11-27T08:11:14.161Z,1016.82
2018-11-27T08:12:14.150Z,1016.86
2018-11-27T08:13:14.140Z,1016.89
2018-11-27T08:14:14.128Z,1016.89
2018-11-27T08:15:14.118Z,1016.88
2018-11-27T08:16:14.106Z,1016.91
2018-11-27T08:17:14.096Z,1016.88
2018-11-27T08:18:14.085Z,1016.90
2018-11-27T08:19:14.075Z,1016.90
2018-11-27T08:20:14.065Z,1016.94
2018-11-27T08:21:14.053Z,1016.94
2018-11-27T08:22:14.043Z,1016.96
2018-11-27T08:23:14.033Z,1017.02
2018-11-27T08:24:14.022Z,1017.01
2018-11-27T08:25:14.014Z,1017.05
2018-11-27T08:26:14.001Z,1017.06
2018-11-27T08:27:13.989Z,1017.06
2018-11-27T08:28:13.978Z,1017.10
2018-11-27T08:29:13.969Z,1017.09
2018-11-27T08:30:13.958Z,1017.05
2018-11-27T08:31:13.946Z,1017.10
2018-11-27T08:32:13.935Z,1017.18
2018-11-27T08:33:13.925Z,1017.21
2018-11-27T08:34:13.914Z,1017.21
2018-11-27T08:35:13.902Z,1017.21
2018-11-27T08:36:13.892Z,1017.19
2018-11-27T08:37:13.881Z,1017.19
2018-11-27T08:38:13.870Z,1017.21
2018-11-27T08:39:13.860Z,1017.19
2018-11-27T08:40:13.849Z,1017.27
2018-11-27T08:41:13.840Z,1017.33
2018-11-27T08:42:13.828Z,1017.29
2018-11-27T08:43:13.817Z,1017.29
2018-11-27T08:44:13.806Z,1017.30
2018-11-27T08:45:13.796Z,1017.29
2018-11-27T08:46:13.785Z,1017.34
2018-11-27T08:47:13.774Z,1017.35
2018-11-27T08:48:13.765Z,1017.35
2018-11-27T08:49:13.760Z,1017.38
2018-11-27T08:50:13.741Z,1017.39
2018-11-27T08:51:13.731Z,1017.42
2018-11-27T08:52:13.720Z,1017.37
2018-11-27T08:53:13.710Z,1017.41
2018-11-27T08:54:13.699Z,1017.40
2018-11-27T08:55:13.688Z,1017.42
2018-11-27T08:56:13.682Z,1017.42
2018-11-27T08:57:13.666Z,1017.44
2018-11-27T08:58:13.657Z,1017.48
2018-11-27T08:59:13.646Z,1017.48
2018-11-27T09:00:13.634Z,1017.53
2018-11-27T09:01:13.624Z,1017.45
2018-11-27T09:02:13.744Z,1017.45
2018-11-27T09:03:13.604Z,1017.45
2018-11-27T09:04:13.595Z,1017.50
2018-11-27T09:05:13.582Z,1017.48
2018-11-27T09:06:13.573Z,1017.51
2018-11-27T09:07:13.559Z,1017.56
2018-11-27T09:08:13.549Z,1017.58
2018-11-27T09:09:13.539Z,1017.64
2018-11-27T09:10:13.528Z,1017.60
2018-11-27T09:11:13.522Z,1017.61
2018-11-27T09:12:13.507Z,1017.63
2018-11-27T09:13:13.756Z,1017.66
2018-11-27T09:14:14.073Z,1017.65
2018-11-27T09:15:13.474Z,1017.72
2018-11-27T09:16:13.465Z,1017.78
2018-11-27T09:17:13.453Z,1017.82
2018-11-27T09:18:13.442Z,1017.79
2018-11-27T09:19:13.431Z,1017.74
2018-11-27T09:20:13.419Z,1017.79
2018-11-27T09:21:13.412Z,1017.79
2018-11-27T09:22:13.400Z,1017.78
2018-11-27T09:23:13.387Z,1017.76
2018-11-27T09:24:13.379Z,1017.87
2018-11-27T09:25:13.367Z,1017.77
2018-11-27T09:26:13.357Z,1017.88
2018-11-27T09:27:13.346Z,1017.88
2018-11-27T09:28:13.334Z,1017.91
2018-11-27T09:29:13.323Z,1017.91
2018-11-27T09:30:13.316Z,1017.90
2018-11-27T09:31:13.302Z,1017.98
2018-11-27T09:32:13.292Z,1017.94
2018-11-27T09:33:13.282Z,1018.01
2018-11-27T09:34:13.271Z,1017.99
2018-11-27T09:35:13.259Z,1018.01
2018-11-27T09:36:13.248Z,1018.02
2018-11-27T09:37:13.240Z,1018.04
2018-11-27T09:38:13.231Z,1018.02
2018-11-27T09:39:13.219Z,1018.04
2018-11-27T09:40:13.241Z,1018.04
2018-11-27T09:41:13.197Z,1018.06
2018-11-27T09:42:13.186Z,1018.05
2018-11-27T09:43:13.175Z,1018.06
2018-11-27T09:44:13.165Z,1018.01
2018-11-27T09:45:13.152Z,1018.00
2018-11-27T09:46:13.142Z,1018.06
2018-11-27T09:47:13.132Z,1018.15
2018-11-27T09:48:13.121Z,1018.06
2018-11-27T09:49:13.110Z,1018.10
2018-11-27T09:50:13.107Z,1018.08
2018-11-27T09:51:13.088Z,1018.11
2018-11-27T09:52:13.078Z,1018.09
2018-11-27T09:53:13.071Z,1018.18
2018-11-27T09:54:13.056Z,1018.15
2018-11-27T09:55:13.045Z,1018.17
2018-11-27T09:56:13.037Z,1018.20
2018-11-27T09:57:13.024Z,1018.23
2018-11-27T09:58:13.013Z,1018.16
2018-11-27T09:59:13.002Z,1018.17
2018-11-27T10:00:12.993Z,1018.16
2018-11-27T10:01:12.981Z,1018.11
2018-11-27T10:02:12.970Z,1018.14
2018-11-27T10:03:12.972Z,1018.19
2018-11-27T10:04:12.950Z,1018.22
2018-11-27T10:05:12.938Z,1018.30
2018-11-27T10:06:12.928Z,1018.22
2018-11-27T10:07:12.932Z,1018.21
2018-11-27T10:08:12.906Z,1018.20
2018-11-27T10:09:12.904Z,1018.22
2018-11-27T10:10:12.887Z,1018.25
2018-11-27T10:11:12.922Z,1018.22
2018-11-27T10:12:12.863Z,1018.23
2018-11-27T10:13:12.853Z,1018.27
2018-11-27T10:14:12.844Z,1018.26
2018-11-27T10:15:12.836Z,1018.33
2018-11-27T10:16:12.825Z,1018.33
2018-11-27T10:17:12.810Z,1018.28
2018-11-27T10:18:12.799Z,1018.33
2018-11-27T10:19:12.791Z,1018.28
2018-11-27T10:20:12.778Z,1018.24
2018-11-27T10:21:12.766Z,1018.29
2018-11-27T10:22:12.755Z,1018.33
2018-11-27T10:23:12.748Z,1018.35
2018-11-27T10:24:12.735Z,1018.32
2018-11-27T10:25:12.725Z,1018.28
2018-11-27T10:26:12.717Z,1018.23
2018-11-27T10:27:12.703Z,1018.30
2018-11-27T10:28:12.692Z,1018.29
2018-11-27T10:29:12.684Z,1018.30
2018-11-27T10:30:12.669Z,1018.30
2018-11-27T10:31:12.659Z,1018.26
2018-11-27T10:32:12.649Z,1018.27
2018-11-27T10:33:12.641Z,1018.26
2018-11-27T10:34:12.629Z,1018.28
2018-11-27T10:35:12.617Z,1018.30
2018-11-27T10:36:12.607Z,1018.28
2018-11-27T10:37:12.595Z,1018.27
2018-11-27T10:38:12.586Z,1018.24
2018-11-27T10:39:12.575Z,1018.21
2018-11-27T10:40:12.564Z,1018.22
2018-11-27T10:41:12.553Z,1018.20
2018-11-27T10:42:13.779Z,1018.22
2018-11-27T10:43:12.533Z,1018.23
2018-11-27T10:44:12.520Z,1018.28
2018-11-27T10:45:12.510Z,1018.32
2018-11-27T10:46:12.499Z,1018.32
2018-11-27T10:47:12.489Z,1018.29
2018-11-27T10:48:12.477Z,1018.29
2018-11-27T10:49:12.510Z,1018.34
2018-11-27T10:50:12.456Z,1018.35
2018-11-27T10:51:12.446Z,1018.35
2018-11-27T10:52:12.435Z,1018.31
2018-11-27T10:53:12.426Z,1018.27
2018-11-27T10:54:12.418Z,1018.26
2018-11-27T10:55:12.405Z,1018.30
2018-11-27T10:56:12.392Z,1018.37
2018-11-27T10:57:12.382Z,1018.35
2018-11-27T10:58:12.373Z,1018.36
2018-11-27T10:59:12.360Z,1018.30
2018-11-27T11:00:12.352Z,1018.34
2018-11-27T11:01:12.341Z,1018.33
2018-11-27T11:02:12.332Z,1018.31
2018-11-27T11:03:12.319Z,1018.29
2018-11-27T11:04:12.308Z,1018.33
2018-11-27T11:05:12.296Z,1018.27
2018-11-27T11:06:12.286Z,1018.28
2018-11-27T11:07:12.274Z,1018.31
2018-11-27T11:08:12.263Z,1018.37
2018-11-27T11:09:12.253Z,1018.33
2018-11-27T11:10:12.245Z,1018.29
2018-11-27T11:11:12.232Z,1018.37
2018-11-27T11:12:12.222Z,1018.35
2018-11-27T11:13:12.212Z,1018.33
2018-11-27T11:14:12.201Z,1018.41
2018-11-27T11:15:12.187Z,1018.40
2018-11-27T11:16:12.177Z,1018.45
2018-11-27T11:17:12.167Z,1018.45
2018-11-27T11:18:12.160Z,1018.46
2018-11-27T11:19:12.145Z,1018.51
2018-11-27T11:20:12.135Z,1018.49
2018-11-27T11:21:12.124Z,1018.52
2018-11-27T11:22:12.112Z,1018.56
2018-11-27T11:23:12.102Z,1018.53
2018-11-27T11:24:12.094Z,1018.55
2018-11-27T11:25:12.080Z,1018.55
2018-11-27T11:26:12.071Z,1018.56
2018-11-27T11:27:12.060Z,1018.59
2018-11-27T11:28:12.050Z,1018.59
2018-11-27T11:29:12.038Z,1018.60
2018-11-27T11:30:12.027Z,1018.59
2018-11-27T11:31:12.023Z,1018.63
2018-11-27T11:32:12.005Z,1018.63
2018-11-27T11:33:11.995Z,1018.58
2018-11-27T11:34:11.985Z,1018.61
2018-11-27T11:35:11.974Z,1018.60
2018-11-27T11:36:11.962Z,1018.61
2018-11-27T11:37:11.951Z,1018.61
2018-11-27T11:38:11.948Z,1018.64
2018-11-27T11:39:11.931Z,1018.59
2018-11-27T11:40:11.920Z,1018.65
2018-11-27T11:41:11.909Z,1018.69
2018-11-27T11:42:11.904Z,1018.65
2018-11-27T11:43:11.890Z,1018.62
2018-11-27T11:44:11.878Z,1018.68
2018-11-27T11:45:11.866Z,1018.67
2018-11-27T11:46:11.856Z,1018.70
2018-11-27T11:47:11.844Z,1018.72
2018-11-27T11:48:11.834Z,1018.74
2018-11-27T11:49:12.338Z,1018.78
2018-11-27T11:50:11.813Z,1018.75
2018-11-27T11:51:11.804Z,1018.70
2018-11-27T11:52:11.795Z,1018.68
2018-11-27T11:53:11.781Z,1018.72
2018-11-27T11:54:11.769Z,1018.76
2018-11-27T11:55:11.760Z,1018.79
2018-11-27T11:56:11.748Z,1018.78
2018-11-27T11:57:11.738Z,1018.78
2018-11-27T11:58:11.728Z,1018.83
2018-11-27T11:59:11.716Z,1018.84
2018-11-27T12:00:11.705Z,1018.84
2018-11-27T12:01:11.696Z,1018.94
2018-11-27T12:02:11.683Z,1018.90
2018-11-27T12:03:11.673Z,1018.96
2018-11-27T12:04:11.664Z,1018.88
2018-11-27T12:05:11.652Z,1018.89